Time;durP1;ratioP1;P1;durP2;ratioP2;P2;SDS_P1;SDS_P2;PMS_P1;PMS_P2;Temp;Humidity;BMP_temperature;BMP_pressure;BME280_temperature;BME280_humidity;BME280_pressure;Samples;Min_cycle;Max_cycle;Signal;HPM_P1;HPM_P2
2022/10/03 00:00:24;;;;;;;14.13;9.50;;;;;;;;;;745895;188;919206;-63
2022/10/03 00:03:10;;;;;;;10.27;8.87;;;;;;;;;;740657;186;918770;-69
2022/10/03 00:05:42;;;;;;;12.60;9.60;;;;;;;;;;731266;186;927830;-69
2022/10/03 00:08:12;;;;;;;11.53;8.37;;;;;;;;;;739845;184;915463;-69
2022/10/03 00:10:55;;;;;;;15.57;8.20;;;;;;;;;;740375;187;919208;-64
2022/10/03 00:13:24;;;;;;;13.40;9.37;;;;;;;;;;745301;185;924636;-70
2022/10/03 00:15:50;;;;;;;12.40;8.03;;;;;;;;;;749068;186;918684;-69
2022/10/03 00:18:18;;;;;;;16.20;9.50;;;;;;;;;;747273;187;918796;-69
2022/10/03 00:20:48;;;;;;;13.70;9.30;;;;;;;;;;741029;187;920702;-69
2022/10/03 00:23:14;;;;;;;16.03;10.50;;;;;;;;;;742669;187;919246;-69
2022/10/03 00:25:55;;;;;;;10.77;8.70;;;;;;;;;;748792;187;918417;-69
2022/10/03 00:28:27;;;;;;;16.03;11.30;;;;;;;;;;751406;185;940863;-69
2022/10/03 00:30:56;;;;;;;13.40;9.40;;;;;;;;;;740998;186;919148;-63
2022/10/03 00:33:32;;;;;;;12.53;10.23;;;;;;;;;;742869;186;910793;-70
2022/10/03 00:35:59;;;;;;;15.23;10.50;;;;;;;;;;738249;187;919116;-62
2022/10/03 00:38:33;;;;;;;16.00;9.93;;;;;;;;;;747841;184;893986;-70
2022/10/03 00:41:14;;;;;;;13.07;10.60;;;;;;;;;;746527;185;915709;-69
2022/10/03 00:43:48;;;;;;;14.50;11.43;;;;;;;;;;752174;186;932577;-69
2022/10/03 00:46:18;;;;;;;15.87;11.10;;;;;;;;;;742123;185;919270;-69
2022/10/03 00:48:48;;;;;;;15.87;11.73;;;;;;;;;;740935;187;918544;-69
2022/10/03 00:51:17;;;;;;;16.20;11.20;;;;;;;;;;739400;187;935864;-63
2022/10/03 00:53:43;;;;;;;12.67;9.83;;;;;;;;;;747079;187;919259;-63
2022/10/03 00:56:14;;;;;;;19.43;10.30;;;;;;;;;;746931;187;919124;-71
2022/10/03 00:58:55;;;;;;;11.47;9.93;;;;;;;;;;739082;187;920254;-69
2022/10/03 01:01:21;;;;;;;16.13;9.80;;;;;;;;;;742777;187;819021;-69
2022/10/03 01:03:49;;;;;;;14.80;9.73;;;;;;;;;;740804;187;925401;-69
2022/10/03 01:06:20;;;;;;;17.10;10.60;;;;;;;;;;745518;187;918979;-70
2022/10/03 01:08:49;;;;;;;21.13;10.50;;;;;;;;;;748506;183;920183;-69
2022/10/03 01:11:20;;;;;;;15.60;11.07;;;;;;;;;;744024;184;902676;-69
2022/10/03 01:13:52;;;;;;;17.97;10.43;;;;;;;;;;742717;186;918454;-63
2022/10/03 01:16:20;;;;;;;17.58;9.85;;;;;;;;;;747113;187;919022;-69
2022/10/03 01:18:48;;;;;;;13.03;10.67;;;;;;;;;;747679;186;919386;-69
2022/10/03 01:21:14;;;;;;;13.23;10.30;;;;;;;;;;743684;185;816082;-69
2022/10/03 01:23:59;;;;;;;14.77;10.23;;;;;;;;;;743498;187;919965;-69
2022/10/03 01:26:29;;;;;;;19.55;10.30;;;;;;;;;;738302;187;919300;-68
2022/10/03 01:31:29;;;;;;;13.17;10.87;;;;;;;;;;745920;185;917076;-63
2022/10/03 01:33:57;;;;;;;19.55;9.43;;;;;;;;;;742115;187;1021833;-63
2022/10/03 01:36:25;;;;;;;13.43;8.90;;;;;;;;;;737126;187;922915;-63
2022/10/03 01:38:55;;;;;;;18.27;10.40;;;;;;;;;;741586;186;919591;-68
2022/10/03 01:41:24;;;;;;;12.83;9.73;;;;;;;;;;747850;184;920957;-69
2022/10/03 01:43:50;;;;;;;15.00;8.53;;;;;;;;;;742615;185;923864;-62
2022/10/03 01:46:17;;;;;;;12.93;7.73;;;;;;;;;;741199;187;918913;-69
2022/10/03 01:48:48;;;;;;;11.77;7.80;;;;;;;;;;747108;187;927696;-70
2022/10/03 01:51:15;;;;;;;13.57;8.40;;;;;;;;;;749243;184;916670;-62
2022/10/03 01:53:42;;;;;;;15.00;7.67;;;;;;;;;;742222;184;921164;-62
2022/10/03 01:56:24;;;;;;;14.93;8.40;;;;;;;;;;740031;187;818008;-70
2022/10/03 01:58:53;;;;;;;11.27;8.30;;;;;;;;;;738401;187;918612;-70
2022/10/03 02:01:19;;;;;;;10.50;8.07;;;;;;;;;;747581;187;919101;-69
2022/10/03 02:03:45;;;;;;;11.80;8.33;;;;;;;;;;744167;186;926002;-70
2022/10/03 02:06:10;;;;;;;9.00;7.43;;;;;;;;;;743313;187;912745;-68
2022/10/03 02:08:37;;;;;;;19.73;8.23;;;;;;;;;;742714;187;919157;-68
2022/10/03 02:11:03;;;;;;;11.57;7.70;;;;;;;;;;747269;187;918085;-63
2022/10/03 02:13:30;;;;;;;16.27;8.73;;;;;;;;;;737707;187;918366;-70
2022/10/03 02:16:12;;;;;;;13.27;8.27;;;;;;;;;;742006;188;917697;-69
2022/10/03 02:18:39;;;;;;;15.60;8.97;;;;;;;;;;739985;186;919171;-62
2022/10/03 02:21:04;;;;;;;18.43;9.47;;;;;;;;;;753877;186;824895;-69
2022/10/03 02:23:39;;;;;;;12.43;8.77;;;;;;;;;;744856;184;948903;-70
2022/10/03 02:26:22;;;;;;;14.40;9.83;;;;;;;;;;742705;185;921786;-63
2022/10/03 02:28:54;;;;;;;10.10;8.50;;;;;;;;;;741519;187;919389;-63
2022/10/03 02:31:39;;;;;;;13.83;8.97;;;;;;;;;;742648;185;918540;-70
2022/10/03 02:34:08;;;;;;;11.10;8.50;;;;;;;;;;742263;185;923184;-62
2022/10/03 02:36:34;;;;;;;17.00;10.00;;;;;;;;;;740925;187;922470;-69
2022/10/03 02:39:21;;;;;;;12.50;8.27;;;;;;;;;;745282;187;818725;-62
2022/10/03 02:41:48;;;;;;;16.47;9.97;;;;;;;;;;749581;187;921007;-70
2022/10/03 02:44:16;;;;;;;11.20;9.17;;;;;;;;;;741279;186;1532962;-62
2022/10/03 02:46:58;;;;;;;11.20;9.02;;;;;;;;;;740982;187;919196;-69
2022/10/03 02:49:39;;;;;;;14.40;9.50;;;;;;;;;;740826;187;918959;-63
2022/10/03 02:52:07;;;;;;;14.73;8.00;;;;;;;;;;746374;185;922074;-63
2022/10/03 02:54:34;;;;;;;16.02;8.85;;;;;;;;;;742441;187;817042;-63
2022/10/03 02:57:16;;;;;;;11.43;8.30;;;;;;;;;;740543;186;918348;-70
2022/10/03 02:59:47;;;;;;;12.47;9.03;;;;;;;;;;740736;185;918691;-64
2022/10/03 03:02:19;;;;;;;14.97;8.37;;;;;;;;;;740981;186;919278;-71
2022/10/03 03:05:01;;;;;;;13.00;8.07;;;;;;;;;;740381;186;915663;-64
2022/10/03 03:07:35;;;;;;;16.45;7.60;;;;;;;;;;736619;185;920555;-63
2022/10/03 03:10:05;;;;;;;12.67;7.60;;;;;;;;;;741717;186;917423;-64
2022/10/03 03:12:36;;;;;;;13.03;7.10;;;;;;;;;;750091;187;917475;-72
2022/10/03 03:15:02;;;;;;;9.13;7.23;;;;;;;;;;752622;187;918889;-64
2022/10/03 03:17:29;;;;;;;15.93;7.30;;;;;;;;;;744102;186;921213;-64
2022/10/03 03:19:55;;;;;;;11.07;6.03;;;;;;;;;;739437;187;930625;-73
2022/10/03 03:22:38;;;;;;;16.90;6.30;;;;;;;;;;746712;187;910162;-64
2022/10/03 03:25:04;;;;;;;13.55;7.35;;;;;;;;;;743731;187;816029;-72
2022/10/03 03:27:34;;;;;;;11.80;6.40;;;;;;;;;;742532;187;816016;-66
2022/10/03 03:30:01;;;;;;;9.00;7.33;;;;;;;;;;740928;187;919211;-63
2022/10/03 03:32:43;;;;;;;13.63;6.03;;;;;;;;;;743727;186;913894;-65
2022/10/03 03:35:25;;;;;;;13.62;6.60;;;;;;;;;;746553;185;914207;-65
2022/10/03 03:37:56;;;;;;;11.03;6.47;;;;;;;;;;723664;186;844412;-72
2022/10/03 03:40:23;;;;;;;10.90;5.87;;;;;;;;;;746207;186;916616;-72
2022/10/03 03:42:53;;;;;;;9.40;5.13;;;;;;;;;;742514;187;926724;-64
2022/10/03 03:45:38;;;;;;;11.00;5.40;;;;;;;;;;742312;186;918515;-72
2022/10/03 03:48:11;;;;;;;8.63;5.63;;;;;;;;;;742110;187;919058;-64
2022/10/03 03:50:38;;;;;;;8.47;5.27;;;;;;;;;;742942;186;919141;-64
2022/10/03 03:53:09;;;;;;;10.03;6.57;;;;;;;;;;747419;186;922650;-63
2022/10/03 03:55:37;;;;;;;9.33;5.10;;;;;;;;;;746212;187;848046;-72
2022/10/03 03:58:05;;;;;;;8.37;5.80;;;;;;;;;;744545;187;825812;-73
2022/10/03 04:00:37;;;;;;;7.57;5.10;;;;;;;;;;742715;186;918634;-72
2022/10/03 04:03:08;;;;;;;7.87;5.70;;;;;;;;;;746918;187;917149;-63
2022/10/03 04:05:49;;;;;;;11.30;5.33;;;;;;;;;;752047;187;817064;-71
2022/10/03 04:08:20;;;;;;;10.60;6.07;;;;;;;;;;749728;187;919438;-73
2022/10/03 04:10:47;;;;;;;12.40;5.78;;;;;;;;;;744108;187;932634;-70
2022/10/03 04:13:23;;;;;;;10.30;5.47;;;;;;;;;;743322;187;725577;-71
2022/10/03 04:16:08;;;;;;;13.13;5.63;;;;;;;;;;742182;187;919190;-69
2022/10/03 04:21:30;;;;;;;9.07;6.37;;;;;;;;;;740398;187;918432;-63
2022/10/03 04:23:57;;;;;;;10.93;5.13;;;;;;;;;;738392;188;967832;-70
2022/10/03 04:26:27;;;;;;;6.60;4.53;;;;;;;;;;746238;187;919267;-63
2022/10/03 04:28:55;;;;;;;14.30;6.63;;;;;;;;;;743968;186;918636;-64
2022/10/03 04:31:27;;;;;;;14.37;5.13;;;;;;;;;;745826;185;813517;-63
2022/10/03 04:34:08;;;;;;;12.00;5.47;;;;;;;;;;738520;187;816069;-71
2022/10/03 04:36:38;;;;;;;12.20;5.70;;;;;;;;;;740804;185;915472;-63
2022/10/03 04:39:09;;;;;;;9.10;5.67;;;;;;;;;;746190;186;920526;-64
2022/10/03 04:41:39;;;;;;;9.17;4.70;;;;;;;;;;747141;186;907755;-64
2022/10/03 04:44:11;;;;;;;9.00;5.07;;;;;;;;;;744064;186;920308;-70
2022/10/03 04:46:49;;;;;;;11.23;5.47;;;;;;;;;;742559;186;894293;-64
2022/10/03 04:49:17;;;;;;;10.23;4.90;;;;;;;;;;745065;186;908223;-63
2022/10/03 04:51:43;;;;;;;6.10;4.53;;;;;;;;;;746926;186;903712;-64
2022/10/03 04:54:14;;;;;;;12.17;5.83;;;;;;;;;;745145;184;918793;-72
2022/10/03 04:56:37;;;;;;;14.73;4.67;;;;;;;;;;740853;184;941784;-65
2022/10/03 04:59:19;;;;;;;8.63;4.23;;;;;;;;;;743811;187;916225;-63
2022/10/03 05:01:44;;;;;;;8.53;5.13;;;;;;;;;;740273;186;916184;-71
2022/10/03 05:04:22;;;;;;;12.60;4.70;;;;;;;;;;745183;187;936192;-63
2022/10/03 05:06:54;;;;;;;9.13;5.10;;;;;;;;;;743201;186;928265;-71
2022/10/03 05:09:21;;;;;;;12.57;5.97;;;;;;;;;;741366;186;919707;-64
2022/10/03 05:11:48;;;;;;;15.10;5.03;;;;;;;;;;742183;187;918798;-63
2022/10/03 05:14:15;;;;;;;12.17;4.33;;;;;;;;;;744752;185;919179;-71
2022/10/03 05:16:42;;;;;;;8.73;5.00;;;;;;;;;;739562;186;920157;-71
2022/10/03 05:19:09;;;;;;;15.10;5.07;;;;;;;;;;741012;187;920845;-63
2022/10/03 05:21:35;;;;;;;9.10;4.93;;;;;;;;;;740022;187;920399;-63
2022/10/03 05:24:02;;;;;;;10.27;5.53;;;;;;;;;;748345;185;917898;-63
2022/10/03 05:26:34;;;;;;;14.17;4.77;;;;;;;;;;745835;186;943956;-63
2022/10/03 05:29:06;;;;;;;6.63;4.03;;;;;;;;;;741341;186;931109;-72
2022/10/03 05:31:47;;;;;;;9.13;4.40;;;;;;;;;;743268;185;816656;-64
2022/10/03 05:34:23;;;;;;;7.53;5.23;;;;;;;;;;741303;187;1021309;-63
2022/10/03 05:36:55;;;;;;;10.50;3.90;;;;;;;;;;746278;187;909403;-63
2022/10/03 05:39:21;;;;;;;11.13;4.67;;;;;;;;;;752967;186;917714;-63
2022/10/03 05:41:50;;;;;;;8.20;5.53;;;;;;;;;;741150;187;916032;-63
2022/10/03 05:44:16;;;;;;;8.70;4.40;;;;;;;;;;741999;187;918877;-63
2022/10/03 05:46:58;;;;;;;10.60;4.40;;;;;;;;;;748341;187;817093;-63
2022/10/03 05:49:42;;;;;;;15.53;4.83;;;;;;;;;;751956;186;866182;-63
2022/10/03 05:52:18;;;;;;;18.87;5.90;;;;;;;;;;749357;186;920460;-62
2022/10/03 05:54:46;;;;;;;10.90;4.27;;;;;;;;;;754627;185;909445;-63
2022/10/03 05:57:20;;;;;;;6.60;3.73;;;;;;;;;;746038;184;919516;-63
2022/10/03 05:59:53;;;;;;;12.90;4.40;;;;;;;;;;742212;184;919298;-72
2022/10/03 06:02:23;;;;;;;16.23;4.27;;;;;;;;;;741797;186;918825;-63
2022/10/03 06:04:54;;;;;;;9.23;3.63;;;;;;;;;;740923;186;922335;-66
2022/10/03 06:07:20;;;;;;;8.97;4.40;;;;;;;;;;750359;185;912675;-63
2022/10/03 06:09:50;;;;;;;8.80;3.00;;;;;;;;;;744826;186;911681;-70
2022/10/03 06:12:27;;;;;;;14.23;3.87;;;;;;;;;;742059;187;912717;-62
2022/10/03 06:15:03;;;;;;;5.93;3.37;;;;;;;;;;745713;187;818155;-70
2022/10/03 06:17:43;;;;;;;7.97;3.90;;;;;;;;;;742646;187;919519;-70
2022/10/03 06:20:10;;;;;;;7.73;2.90;;;;;;;;;;740896;185;919491;-69
2022/10/03 06:22:42;;;;;;;7.90;3.30;;;;;;;;;;741901;184;718633;-70
2022/10/03 06:25:10;;;;;;;4.30;3.30;;;;;;;;;;744989;186;919669;-70
2022/10/03 06:27:52;;;;;;;15.57;3.43;;;;;;;;;;739784;186;920070;-63
2022/10/03 06:30:23;;;;;;;9.80;3.73;;;;;;;;;;738042;187;904466;-63
2022/10/03 06:33:06;;;;;;;12.17;3.20;;;;;;;;;;744203;187;814734;-62
2022/10/03 06:35:38;;;;;;;6.27;3.10;;;;;;;;;;736478;186;926340;-70
2022/10/03 06:38:23;;;;;;;8.20;3.78;;;;;;;;;;742757;188;918188;-63
2022/10/03 06:40:49;;;;;;;6.60;3.10;;;;;;;;;;737520;187;918487;-61
2022/10/03 06:43:33;;;;;;;7.17;3.13;;;;;;;;;;744269;185;919257;-70
2022/10/03 06:46:14;;;;;;;7.30;3.40;;;;;;;;;;748799;184;819616;-63
2022/10/03 06:48:40;;;;;;;14.90;4.00;;;;;;;;;;744724;184;920486;-69
2022/10/03 06:51:08;;;;;;;12.27;3.30;;;;;;;;;;745134;186;917726;-70
2022/10/03 06:53:38;;;;;;;5.33;3.40;;;;;;;;;;743911;186;822224;-70
2022/10/03 06:56:20;;;;;;;7.93;3.60;;;;;;;;;;747292;187;916206;-62
2022/10/03 06:58:58;;;;;;;6.30;3.03;;;;;;;;;;743076;185;919105;-70
2022/10/03 07:01:30;;;;;;;10.30;3.17;;;;;;;;;;750930;186;918917;-62
2022/10/03 07:04:02;;;;;;;10.97;4.20;;;;;;;;;;745855;186;910829;-62
2022/10/03 07:06:28;;;;;;;14.80;3.43;;;;;;;;;;744363;186;919133;-63
2022/10/03 07:08:58;;;;;;;7.07;3.70;;;;;;;;;;742112;185;920956;-62
2022/10/03 07:11:27;;;;;;;12.63;3.87;;;;;;;;;;746441;187;916563;-63
2022/10/03 07:13:59;;;;;;;8.70;3.23;;;;;;;;;;744989;186;918249;-62
2022/10/03 07:16:30;;;;;;;7.40;4.50;;;;;;;;;;741177;186;918770;-61
2022/10/03 07:18:56;;;;;;;6.90;3.20;;;;;;;;;;742895;187;919572;-71
2022/10/03 07:21:30;;;;;;;9.93;3.07;;;;;;;;;;745439;187;919724;-70
2022/10/03 07:23:55;;;;;;;9.37;4.30;;;;;;;;;;748473;186;920483;-62
2022/10/03 07:26:28;;;;;;;8.13;3.10;;;;;;;;;;744189;186;918564;-62
2022/10/03 07:28:55;;;;;;;7.47;2.80;;;;;;;;;;742518;186;920815;-69
2022/10/03 07:31:20;;;;;;;7.32;2.65;;;;;;;;;;743099;186;918727;-63
2022/10/03 07:34:03;;;;;;;12.53;3.37;;;;;;;;;;743566;186;829718;-62
2022/10/03 07:39:23;;;;;;;12.43;3.93;;;;;;;;;;749022;186;819925;-61
2022/10/03 07:41:54;;;;;;;7.27;2.83;;;;;;;;;;743858;187;956278;-70
2022/10/03 07:44:41;;;;;;;11.30;3.10;;;;;;;;;;743101;187;918799;-69
2022/10/03 07:47:08;;;;;;;8.37;2.67;;;;;;;;;;742780;185;939461;-68
2022/10/03 07:49:39;;;;;;;9.60;2.97;;;;;;;;;;744620;185;816611;-62
2022/10/03 07:52:07;;;;;;;4.53;2.87;;;;;;;;;;742294;186;919293;-62
2022/10/03 07:54:35;;;;;;;5.83;2.57;;;;;;;;;;740766;186;816998;-69
2022/10/03 07:57:08;;;;;;;17.93;3.27;;;;;;;;;;742196;187;817257;-69
2022/10/03 07:59:37;;;;;;;5.43;2.93;;;;;;;;;;745287;186;815035;-69
2022/10/03 08:02:07;;;;;;;9.17;3.20;;;;;;;;;;739948;186;913700;-68
2022/10/03 08:04:35;;;;;;;4.10;2.37;;;;;;;;;;747907;187;912413;-61
2022/10/03 08:07:01;;;;;;;5.00;3.00;;;;;;;;;;740986;186;843639;-67
2022/10/03 08:09:29;;;;;;;4.80;2.47;;;;;;;;;;744586;186;919765;-61
2022/10/03 08:12:08;;;;;;;4.70;2.53;;;;;;;;;;743039;186;919744;-68
2022/10/03 08:14:38;;;;;;;12.73;3.77;;;;;;;;;;735384;190;875197;-69
2022/10/03 08:17:10;;;;;;;8.17;2.60;;;;;;;;;;755530;186;915648;-68
2022/10/03 08:19:41;;;;;;;9.57;3.17;;;;;;;;;;746760;187;818187;-68
2022/10/03 08:22:07;;;;;;;6.07;2.40;;;;;;;;;;741514;185;922849;-62
2022/10/03 08:24:35;;;;;;;7.07;3.17;;;;;;;;;;745644;186;623533;-62
2022/10/03 08:27:09;;;;;;;4.93;3.17;;;;;;;;;;736910;188;894783;-68
2022/10/03 08:29:40;;;;;;;4.47;2.67;;;;;;;;;;744387;186;892029;-68
2022/10/03 08:32:07;;;;;;;5.90;3.17;;;;;;;;;;742636;186;919708;-62
2022/10/03 08:34:39;;;;;;;7.20;3.00;;;;;;;;;;741154;186;816719;-67
2022/10/03 08:37:05;;;;;;;4.30;2.47;;;;;;;;;;746510;187;817276;-67
2022/10/03 08:39:35;;;;;;;8.00;2.73;;;;;;;;;;740163;187;915549;-67
2022/10/03 08:42:02;;;;;;;6.03;4.00;;;;;;;;;;746834;186;919397;-68
2022/10/03 08:44:32;;;;;;;7.37;3.10;;;;;;;;;;742288;187;817651;-67
2022/10/03 08:47:04;;;;;;;9.63;2.87;;;;;;;;;;747649;187;811268;-66
2022/10/03 08:49:45;;;;;;;3.90;2.50;;;;;;;;;;750279;186;917464;-66
2022/10/03 08:52:17;;;;;;;4.33;2.27;;;;;;;;;;738897;187;919518;-67
2022/10/03 08:54:55;;;;;;;3.27;2.57;;;;;;;;;;744131;186;919730;-69
2022/10/03 08:57:22;;;;;;;5.23;2.47;;;;;;;;;;743181;187;920616;-62
2022/10/03 08:59:53;;;;;;;3.83;2.00;;;;;;;;;;741825;187;913733;-68
2022/10/03 09:02:21;;;;;;;5.40;2.13;;;;;;;;;;744082;187;918573;-62
2022/10/03 09:04:53;;;;;;;3.63;1.97;;;;;;;;;;742514;185;914868;-61
2022/10/03 09:07:25;;;;;;;9.30;3.10;;;;;;;;;;739874;187;921026;-61
2022/10/03 09:10:01;;;;;;;6.97;2.60;;;;;;;;;;742076;186;919439;-62
2022/10/03 09:12:27;;;;;;;5.67;3.90;;;;;;;;;;741155;186;921633;-69
2022/10/03 09:14:59;;;;;;;2.57;1.80;;;;;;;;;;746882;187;920251;-68
2022/10/03 09:17:43;;;;;;;8.53;2.63;;;;;;;;;;746227;185;919056;-62
2022/10/03 09:20:15;;;;;;;5.60;2.33;;;;;;;;;;744939;183;922649;-61
2022/10/03 09:22:41;;;;;;;4.80;2.27;;;;;;;;;;743118;187;818452;-68
2022/10/03 09:25:08;;;;;;;4.97;2.10;;;;;;;;;;739901;187;854424;-61
2022/10/03 09:27:34;;;;;;;4.73;1.80;;;;;;;;;;745811;187;919242;-68
2022/10/03 09:30:09;;;;;;;8.43;2.37;;;;;;;;;;747061;184;919367;-68
2022/10/03 09:32:39;;;;;;;3.80;1.60;;;;;;;;;;743442;186;818450;-62
2022/10/03 09:35:09;;;;;;;3.40;2.30;;;;;;;;;;742798;187;919823;-67
2022/10/03 09:37:34;;;;;;;4.47;1.63;;;;;;;;;;739648;187;919107;-66
2022/10/03 09:40:00;;;;;;;4.10;2.10;;;;;;;;;;745896;187;917519;-68
2022/10/03 09:42:41;;;;;;;5.03;1.80;;;;;;;;;;737199;186;918607;-60
2022/10/03 09:45:23;;;;;;;5.50;2.17;;;;;;;;;;736222;187;919747;-60
2022/10/03 09:47:50;;;;;;;5.03;1.90;;;;;;;;;;739223;185;921852;-60
2022/10/03 09:50:31;;;;;;;4.83;1.70;;;;;;;;;;746276;185;818625;-68
2022/10/03 09:53:17;;;;;;;4.60;1.95;;;;;;;;;;743016;184;915702;-67
2022/10/03 09:55:44;;;;;;;3.17;1.97;;;;;;;;;;745659;187;918855;-60
2022/10/03 09:58:24;;;;;;;4.45;1.52;;;;;;;;;;746196;186;919395;-67
2022/10/03 10:00:56;;;;;;;4.90;1.93;;;;;;;;;;743577;186;918544;-68
2022/10/03 10:03:38;;;;;;;5.57;1.87;;;;;;;;;;744844;186;919663;-68
2022/10/03 10:06:04;;;;;;;5.40;2.53;;;;;;;;;;743175;186;919915;-61
2022/10/03 10:08:33;;;;;;;3.20;1.90;;;;;;;;;;740659;187;919406;-61
2022/10/03 10:11:02;;;;;;;4.90;1.70;;;;;;;;;;741430;187;916747;-61
2022/10/03 10:13:34;;;;;;;9.20;2.27;;;;;;;;;;743950;186;918962;-61
2022/10/03 10:16:17;;;;;;;5.50;2.15;;;;;;;;;;740257;188;919163;-68
2022/10/03 10:18:49;;;;;;;7.90;1.83;;;;;;;;;;744873;187;919153;-68
2022/10/03 10:21:31;;;;;;;5.30;1.57;;;;;;;;;;743751;186;919620;-68
2022/10/03 10:23:58;;;;;;;10.03;2.63;;;;;;;;;;742327;186;919005;-68
2022/10/03 10:26:30;;;;;;;4.00;1.50;;;;;;;;;;744708;187;919902;-63
2022/10/03 10:29:01;;;;;;;2.73;1.30;;;;;;;;;;739923;187;917995;-65
2022/10/03 10:31:30;;;;;;;4.53;1.77;;;;;;;;;;743590;186;920929;-60
2022/10/03 10:33:57;;;;;;;5.13;1.93;;;;;;;;;;739719;186;918271;-67
2022/10/03 10:36:23;;;;;;;7.90;2.60;;;;;;;;;;742857;187;918138;-67
2022/10/03 10:38:55;;;;;;;4.40;1.73;;;;;;;;;;746074;186;920668;-60
2022/10/03 10:41:26;;;;;;;3.10;1.80;;;;;;;;;;755505;183;917872;-59
2022/10/03 10:43:58;;;;;;;4.67;1.70;;;;;;;;;;745410;185;920591;-66
2022/10/03 10:46:43;;;;;;;7.97;2.10;;;;;;;;;;741961;187;922388;-66
2022/10/03 10:49:10;;;;;;;6.15;1.90;;;;;;;;;;754356;183;933491;-68
2022/10/03 10:51:40;;;;;;;4.73;1.80;;;;;;;;;;741079;187;918530;-68
2022/10/03 10:54:11;;;;;;;5.63;1.80;;;;;;;;;;746692;186;919290;-67
2022/10/03 10:56:41;;;;;;;3.30;1.57;;;;;;;;;;752938;187;811641;-60
2022/10/03 10:59:10;;;;;;;3.57;1.50;;;;;;;;;;746421;186;920867;-68
2022/10/03 11:01:42;;;;;;;3.62;1.70;;;;;;;;;;741107;188;917354;-60
2022/10/03 11:04:13;;;;;;;2.53;1.20;;;;;;;;;;740352;187;920161;-67
2022/10/03 11:06:43;;;;;;;4.97;1.83;;;;;;;;;;753828;186;918887;-67
2022/10/03 11:09:24;;;;;;;4.57;1.80;;;;;;;;;;743290;186;919171;-66
2022/10/03 11:12:01;;;;;;;6.03;1.60;;;;;;;;;;738936;186;1021598;-59
2022/10/03 11:14:30;;;;;;;3.13;1.20;;;;;;;;;;742489;186;920094;-67
2022/10/03 11:17:17;;;;;;;20.40;2.40;;;;;;;;;;741986;187;919016;-67
2022/10/03 11:19:45;;;;;;;5.40;2.20;;;;;;;;;;736727;187;921520;-67
2022/10/03 11:22:26;;;;;;;3.10;1.50;;;;;;;;;;739570;187;918890;-60
2022/10/03 11:25:07;;;;;;;3.80;1.80;;;;;;;;;;741909;186;920566;-65
2022/10/03 11:27:35;;;;;;;9.53;1.93;;;;;;;;;;727235;190;919640;-60
2022/10/03 11:30:03;;;;;;;4.37;2.03;;;;;;;;;;740977;187;918326;-60
2022/10/03 11:32:49;;;;;;;4.30;1.50;;;;;;;;;;739506;187;917949;-66
2022/10/03 11:35:21;;;;;;;2.40;1.20;;;;;;;;;;743296;187;917384;-68
2022/10/03 11:37:51;;;;;;;3.30;1.60;;;;;;;;;;741424;187;916974;-68
2022/10/03 11:40:28;;;;;;;7.55;1.73;;;;;;;;;;739174;184;919461;-68
2022/10/03 11:43:08;;;;;;;5.53;2.50;;;;;;;;;;743118;187;908407;-60
2022/10/03 11:45:35;;;;;;;5.13;1.90;;;;;;;;;;739585;186;918770;-61
2022/10/03 11:48:08;;;;;;;8.50;1.73;;;;;;;;;;749381;184;883273;-68
2022/10/03 11:50:34;;;;;;;3.33;1.20;;;;;;;;;;738926;187;918634;-68
2022/10/03 11:53:06;;;;;;;4.73;1.30;;;;;;;;;;738044;186;919612;-67
2022/10/03 11:55:38;;;;;;;5.07;1.70;;;;;;;;;;743407;185;920768;-60
2022/10/03 11:58:03;;;;;;;2.53;1.13;;;;;;;;;;749693;186;919293;-67
2022/10/03 12:00:29;;;;;;;5.07;1.33;;;;;;;;;;744427;184;919107;-68
2022/10/03 12:03:14;;;;;;;2.70;1.10;;;;;;;;;;738777;187;919488;-69
2022/10/03 12:05:42;;;;;;;3.23;1.20;;;;;;;;;;742096;187;922360;-68
2022/10/03 12:10:45;;;;;;;3.67;1.60;;;;;;;;;;750342;187;918008;-61
2022/10/03 12:13:13;;;;;;;3.10;1.60;;;;;;;;;;745170;186;918664;-60
2022/10/03 12:15:37;;;;;;;6.00;1.70;;;;;;;;;;744225;187;919003;-68
2022/10/03 12:18:03;;;;;;;4.03;1.30;;;;;;;;;;742590;187;919086;-68
2022/10/03 12:20:29;;;;;;;4.50;1.60;;;;;;;;;;747842;185;918610;-69
2022/10/03 12:22:55;;;;;;;3.60;1.33;;;;;;;;;;746486;186;814815;-60
2022/10/03 12:25:22;;;;;;;4.30;1.90;;;;;;;;;;741541;187;918904;-60
2022/10/03 12:27:48;;;;;;;4.27;1.43;;;;;;;;;;748137;186;942692;-68
2022/10/03 12:30:15;;;;;;;3.73;1.37;;;;;;;;;;747090;187;921361;-68
2022/10/03 12:32:47;;;;;;;4.00;1.53;;;;;;;;;;744419;187;918333;-60
2022/10/03 12:35:14;;;;;;;3.90;1.70;;;;;;;;;;740741;187;918087;-61
2022/10/03 12:37:42;;;;;;;7.50;1.50;;;;;;;;;;743032;187;919199;-69
2022/10/03 12:40:12;;;;;;;3.60;1.30;;;;;;;;;;743026;184;815930;-69
2022/10/03 12:42:40;;;;;;;3.65;1.40;;;;;;;;;;742405;187;895787;-68
2022/10/03 12:45:10;;;;;;;3.60;1.40;;;;;;;;;;741157;187;919387;-62
2022/10/03 12:47:53;;;;;;;3.07;1.50;;;;;;;;;;749807;186;817048;-70
2022/10/03 12:50:21;;;;;;;3.77;1.17;;;;;;;;;;731669;187;912303;-68
2022/10/03 12:52:50;;;;;;;4.00;1.27;;;;;;;;;;744296;185;918712;-61
2022/10/03 12:55:27;;;;;;;2.93;1.30;;;;;;;;;;743564;186;895410;-61
2022/10/03 12:58:02;;;;;;;2.40;1.37;;;;;;;;;;743859;187;816512;-61
2022/10/03 13:00:29;;;;;;;3.97;1.60;;;;;;;;;;742937;186;918186;-67
2022/10/03 13:02:57;;;;;;;3.47;1.60;;;;;;;;;;748767;187;816523;-61
2022/10/03 13:05:31;;;;;;;7.67;1.73;;;;;;;;;;739973;186;924849;-62
2022/10/03 13:07:59;;;;;;;2.50;1.50;;;;;;;;;;742631;184;919082;-60
2022/10/03 13:10:30;;;;;;;4.30;1.40;;;;;;;;;;743880;187;916447;-68
2022/10/03 13:13:01;;;;;;;3.07;1.77;;;;;;;;;;746443;186;914332;-60
2022/10/03 13:15:33;;;;;;;2.20;1.30;;;;;;;;;;751885;187;802350;-68
2022/10/03 13:17:58;;;;;;;2.70;1.40;;;;;;;;;;741806;187;919361;-68
2022/10/03 13:20:24;;;;;;;3.25;1.60;;;;;;;;;;744063;186;920668;-60
2022/10/03 13:22:52;;;;;;;3.30;1.50;;;;;;;;;;746735;184;851529;-60
2022/10/03 13:25:23;;;;;;;3.50;1.93;;;;;;;;;;741811;186;919220;-67
2022/10/03 13:27:50;;;;;;;2.10;1.30;;;;;;;;;;741095;186;918753;-67
2022/10/03 13:30:19;;;;;;;2.83;1.40;;;;;;;;;;740140;187;918972;-67
2022/10/03 13:32:56;;;;;;;2.40;1.20;;;;;;;;;;746537;187;910348;-61
2022/10/03 13:38:09;;;;;;;2.65;1.48;;;;;;;;;;743731;185;918846;-61
2022/10/03 13:40:34;;;;;;;3.70;1.20;;;;;;;;;;741642;185;919238;-62
2022/10/03 13:43:00;;;;;;;4.95;1.87;;;;;;;;;;742607;186;914497;-68
2022/10/03 13:45:27;;;;;;;4.67;1.70;;;;;;;;;;746409;187;919289;-65
2022/10/03 13:47:54;;;;;;;7.23;2.00;;;;;;;;;;743186;187;921048;-61
2022/10/03 13:50:29;;;;;;;4.60;1.80;;;;;;;;;;743414;186;921794;-62
2022/10/03 13:52:55;;;;;;;5.93;1.67;;;;;;;;;;742336;186;919323;-61
2022/10/03 13:55:26;;;;;;;3.00;1.37;;;;;;;;;;743639;186;918940;-68
2022/10/03 13:57:56;;;;;;;2.80;1.60;;;;;;;;;;744148;187;919012;-61
2022/10/03 14:00:22;;;;;;;2.60;1.47;;;;;;;;;;740146;185;919357;-61
2022/10/03 14:03:07;;;;;;;2.73;1.40;;;;;;;;;;740376;185;918489;-70
2022/10/03 14:05:34;;;;;;;2.97;1.30;;;;;;;;;;741851;184;919457;-69
2022/10/03 14:08:03;;;;;;;5.82;1.40;;;;;;;;;;741919;187;919347;-63
2022/10/03 14:10:31;;;;;;;2.77;1.20;;;;;;;;;;748870;186;875650;-62
2022/10/03 14:13:16;;;;;;;2.97;1.50;;;;;;;;;;742346;184;923839;-69
2022/10/03 14:15:46;;;;;;;5.57;1.50;;;;;;;;;;745821;184;920873;-60
2022/10/03 14:18:13;;;;;;;2.97;1.50;;;;;;;;;;746017;185;843131;-68
2022/10/03 14:20:55;;;;;;;4.63;1.50;;;;;;;;;;744193;186;919330;-68
2022/10/03 14:23:22;;;;;;;3.63;1.50;;;;;;;;;;737888;185;919099;-69
2022/10/03 14:25:54;;;;;;;4.63;1.97;;;;;;;;;;744556;186;918985;-69
2022/10/03 14:28:19;;;;;;;3.45;1.83;;;;;;;;;;742826;185;918833;-62
2022/10/03 14:31:00;;;;;;;4.00;1.60;;;;;;;;;;743917;185;921905;-61
2022/10/03 14:33:31;;;;;;;5.83;1.80;;;;;;;;;;740894;186;919938;-69
2022/10/03 14:36:01;;;;;;;4.30;2.17;;;;;;;;;;743180;186;919997;-68
2022/10/03 14:41:16;;;;;;;3.00;1.73;;;;;;;;;;746139;186;846599;-71
2022/10/03 14:43:46;;;;;;;2.70;1.77;;;;;;;;;;741427;187;919318;-71
2022/10/03 14:46:12;;;;;;;3.93;1.50;;;;;;;;;;739898;187;918932;-62
2022/10/03 14:48:37;;;;;;;2.87;1.60;;;;;;;;;;742359;186;920004;-62
2022/10/03 14:51:04;;;;;;;6.23;1.60;;;;;;;;;;747071;187;919040;-69
2022/10/03 14:53:28;;;;;;;4.50;2.23;;;;;;;;;;739892;187;837426;-62
2022/10/03 14:55:56;;;;;;;3.13;1.93;;;;;;;;;;741096;187;818683;-70
2022/10/03 14:58:28;;;;;;;3.63;1.60;;;;;;;;;;746043;187;919173;-62
2022/10/03 15:00:58;;;;;;;4.37;1.60;;;;;;;;;;740667;187;916611;-63
2022/10/03 15:03:24;;;;;;;3.13;1.50;;;;;;;;;;743414;186;918615;-63